Barrow, AK

2:48 AM AKST on February 09, 2016 (GMT -0900)
Wiley Post-Will Rogers Memorial | | Change Station
CLOSE
Current Station
Airport
Location: Barrow,
Elevation: 43 ft
Nearby Weather Stations

Elev 43 ft 71.28 °N, 156.79 °W | Updated 55 minutes ago

Overcast
Overcast
-13 °F
Feels Like -39 °F
N
21
Wind Variable Wind from East

Today
High -- | Low -- °F
--% Chance of Precip.
Yesterday
High -- | Low -- °F
Precip. -- in
Pressure 30.32 in
Visibility 8.0 miles
Clouds Mostly Cloudy 1000 ft
Overcast 2200 ft
Windchill -39 °F
Dew Point -17 °F
Humidity 82%
Rainfall 0.00 in
Snow Depth Not available.
10:47 AM 4:36 PM
New Moon, 1% visible
METAR PABR 091053Z 08018KT 8SM BKN010 OVC022 M25/M27 A3031 RMK AO2 SLP266 T12501272
Pressure 30.32 in
Visibility 8.0 miles
Clouds Mostly Cloudy 1000 ft
Overcast 2200 ft
Windchill -39 °F
Dew Point -17 °F
Humidity 82%
Rainfall 0.00 in
Snow Depth Not available.
10:47 AM 4:36 PM
New Moon, 1% visible
METAR PABR 091053Z 08018KT 8SM BKN010 OVC022 M25/M27 A3031 RMK AO2 SLP266 T12501272

10-Day Weather Forecast

Almanac

Astronomy

Feb. 09, 2016 Rise Set
Actual Time
Civil Twilight
Nautical Twilight
Astronomical Twilight
Moon
Length of Visible Light
Length of Day
Tomorrow will be .
, % of the Moon is Illuminated

Today's Extremes

State Highs State Lows

Community

WunderPhotos

Upload Photos

1,891,565 photos uploaded!

WunderBlog® & News

Nearby

Air Quality

  Air Quality AQ Index Pollutant
Not available.

Snow Depth

Station Depth Elevation

Earthquake Activity

City Distance Mag. Time & Date
Minimum magnitude displayed is 2.5.

Coastal Water Temperatures

Place Temperature

Stations

Nearby Weather Stations

Station Location Temp. Windchill Dew Point Humidity Wind Precip. Elev Updated Type
                   

Watches & Warnings

There are currently no watches in effect.